Accueil
METAR-TAF:

METAR-TAF

Aéroports :

Aéroport de Gênes-Christophe Colomb

Gênes, Italie

latitude: 44-25N, longitude: 008-51E, altitude: 2 m

Observation

Le bulletin a été fait il y a 25 minutes, à 05:50 UTC
Vent 4 kt de nord/nord-est
Température 11°C
Humidité 76%
Pression 1018 hPa
Visibilité 10 km ou plus
Nuages fragmentés à une hauteur de 3000 ft

METAR: LIMJ 070550Z 02004KT 9999 BKN030 11/07 Q1018

Heure: 07:15 (06:15 UTC)

Prévision

Le bulletin a été fait il y a 1 heure et 15 minutes, à 05:00 UTC
Prévision valable du 07 à 06 UTC au 08 à 06 UTC
Vent 8 kt de nord/nord-est
Visibilité 10 km ou plus
Nuages épars à une hauteur de 4000 ft

TAF: LIMJ 070500Z 0706/0806 03008KT 9999 SCT040

Observations et prévisions météorologiques de plus de 4000 aéroports (messages METAR et TAF).

Les stations disponibles sont représentées par des disques jaunes et rouges sur la carte.

Passer la souris dessus pour voir le nom de la station.

Cliquer dessus pour voir les observations et prévisions météorologiques.

Pour changer de carte: cliquez sur les boutons verts avec une croix noire pour zoomer, sur le bouton vert avec un tiret pour effectuer un zoom arrière, ou sur les flèches vertes pour les cartes adjacentes.


METAR-TAF: